Tiempo atmosférico en la estación meteorológica de Chinchilla, Albacete (880 m.)

Fecha
DESCASC
Temp. máxima en grados centígrados (hora)
DESCASC
Temp. mínima en grados centígrados (hora)
DESCASC
Temp. media en grados centígrados
DESCASC
Racha de viento máxima en m/sg (hora)
DESCASC
Velocidad máxima media en intervalos de 10 minutos(hora)
DESCASC
Precipitaciones diarias en mm
DESCASC
Precipitaciones de 00:00 a 06:00 en mm
DESCASC
Precipitaciones de 06:00 a 12:00 en mm
DESCASC
Precipitaciones de 12:00 a 18:00 en mm
DESCASC
Precipitaciones de 18:00 a 24:00 en mm
DESCASC
17-08-2017 33.3 (16:10) 16.5 (06:50) 24.9 10 (19:00) 5.83 (19:20) 0 0 0 0 0
16-08-2017 34.1 (16:30) 16.6 (07:40) 25.3 8.61 (20:30) 6.11 (20:30) 0 0 0 0 0
15-08-2017 34.7 (17:20) 15 (00:00) 24.9 18.06 (08:20) 6.94 (19:20) 0.3 0 0.3 0 0
14-08-2017 29.8 (17:10) 14 (07:50) 21.9 10.83 (14:20) 7.5 (14:50) 0 0 0 0 0
13-08-2017 29.4 (17:10) 12 (00:00) 20.7 11.11 (13:10) 6.94 (19:40) 0 0 0 0 0
12-08-2017 29.9 (16:30) 14.4 (00:00) 22.1 14.17 (06:10) 6.67 (02:10) 0 0 0 0 0
11-08-2017 29.2 (17:40) 13.5 (00:00) 21.4 8.06 (21:40) 5.28 (21:50) 0 0 0 0 0
10-08-2017 26.1 (17:10) 12.9 (00:00) 19.5 11.11 (01:10) 6.39 (02:30) 0.4 0.4 0 0 0
09-08-2017 30.8 (16:50) 14.4 (00:00) 22.6 12.5 (23:40) 8.61 (23:20) 0 0 0 0 0
08-08-2017 29.9 (16:50) 18.5 (00:00) 24.2 12.22 (16:20) 6.67 (20:00) 0 0 0 0 0
07-08-2017 36.1 (16:30) 17.7 (00:00) 26.9 10.28 (19:00) 6.67 (01:20) 0 0 0 0 0
06-08-2017 34.2 (16:20) 18.6 (00:00) 26.4 15.83 (17:20) 9.72 (18:40) 0 0 0 0 0
05-08-2017 36.8 (16:10) 20.5 (00:00) 28.6 11.11 (16:40) 7.5 (23:59) 0 0 0 0 0
04-08-2017 37.9 (16:30) 19.7 (00:00) 28.8 7.78 (16:40) 5.56 (20:50) 0 0 0 0 0
03-08-2017 35.2 (17:20) 18.5 (00:00) 26.9 8.33 (17:40) 4.72 (00:30) 0 0 0 0 0
02-08-2017 31.6 (14:20) 18.9 (00:00) 25.3 13.89 (16:00) 9.17 (16:00) 0 0 0 0 0
01-08-2017 29.4 (17:00) 18 (00:00) 23.7 12.78 (21:20) 7.22 (21:20) 0.5 0 0.3 0.2 0
31-07-2017 36.5 (17:10) 18.4 (00:00) 27.4 9.44 (17:20) 5.56 (22:20) 0 0 0 0 0
30-07-2017 38.1 (17:10) 20.1 (00:00) 29.1 10.56 (16:30) 6.39 (20:30) 0 0 0 0 0
29-07-2017 37.1 (16:50) 17.6 (00:00) 27.3 8.61 (20:30) 5.83 (20:30) 0 0 0 0 0
28-07-2017 36.6 (18:10) 19.1 (00:00) 27.8 9.72 (20:40) 6.11 (20:30) 0 0 0 0 0
27-07-2017 35.1 (16:10) 17.3 (00:00) 26.2 9.44 (20:20) 6.11 (20:20) 0 0 0 0 0
26-07-2017 31.2 (18:00) 16.2 (00:00) 23.7 11.11 (16:50) 5.28 (23:20) 0 0 0 0 0
25-07-2017 30.2 (15:50) 15.9 (00:00) 23.1 11.11 (16:40) 5.83 (18:30) 0 0 0 0 0
24-07-2017 31 (15:50) 16.8 (00:00) 23.9 11.67 (17:30) 6.11 (17:30) 0 0 0 0 0
23-07-2017 33.7 (17:20) 18 (00:00) 25.9 11.67 (18:40) 6.11 (17:50) 0 0 0 0 0
22-07-2017 33.3 (16:50) 16.6 (00:00) 24.9 7.22 (15:20) 5 (23:30) 0 0 0 0 0
21-07-2017 31.4 (18:20) 17.7 (00:00) 24.6 9.17 (15:00) 5 (01:10) 0 0 0 0 0
20-07-2017 32.8 (18:10) 17.3 (00:00) 25 16.67 (19:20) 9.17 (20:40) 0 0 0 0 0
19-07-2017 34.1 (16:20) 17 (00:00) 25.5 8.89 (20:10) 6.11 (19:50) 0 0 0 0 0

Gráficas

Temp. máximas Temp. mínimas Temp. medias Precipitaciones Rachas de viento máximas Velocidades máximas media en intervalos de 10 minutos

Datos horarios

Fecha y hora oficial Temperatura (ºC) Velocidad del viento (km/h) Dirección del viento Racha (km/h) Dirección de racha Precipitación (mm) Presión (hPa) Tendencia (hPa) Humedad (%)
2017-08-17 23:00:00 23.3 11 Sudeste 23 Sur 0 919.7 1.2 47
2017-08-17 22:00:00 24.8 13 Sur 26 Sur 0 919.3 1.2 43
2017-08-17 21:00:00 26.7 11 Sur 29 Sur 0 918.9 0.5 40
2017-08-17 20:00:00 29.1 21 Sur 33 Sur 0 918.5 0.1 35
2017-08-17 19:00:00 31.1 19 Sur 36 Sudoeste 0 918.1 -0.9 29
2017-08-17 18:00:00 32.7 17 Sur 35 Sur 0 918.4 -1.1 28
2017-08-17 17:00:00 32.8 16 Sur 31 Sur 0 918.4 -1.6 29
2017-08-17 16:00:00 32.9 12 Sur 28 Sudeste 0 919 -1.5 29
2017-08-17 15:00:00 31.9 14 Sur 29 Sur 0 919.5 -1.3 31
2017-08-17 14:00:00 31 13 Sudeste 23 Sur 0 920 -1 35
2017-08-17 13:00:00 28.7 14 Sur 24 Sur 0 920.5 -0.5 42
2017-08-17 12:00:00 26.3 14 Sur 23 Sur 0 920.8 0.2 53
2017-08-17 11:00:00 23 15 Sur 23 Sur 0 921 0.8 68
2017-08-17 10:00:00 19.2 16 Sudeste 22 Sudeste 0 921 1.1 84
2017-08-17 09:00:00 17.8 14 Sudeste 23 Este 0 920.6 0.8 85
2017-08-17 08:00:00 16.6 19 Este 23 Sudeste 0 920.2 0.5 85
2017-08-17 07:00:00 16.5 14 Este 23 Sudeste 0 919.9 0.1 84
2017-08-17 06:00:00 17 18 Este 24 Sudeste 0 919.8 -0.1 84
2017-08-17 05:00:00 17.7 19 Sudeste 23 Este 0 919.7 -0.2 85
2017-08-17 04:00:00 18.5 17 Este 24 Este 0 919.8 -0.2 85
2017-08-17 03:00:00 19.5 18 Este 24 Este 0 919.9 0 82
2017-08-17 02:00:00 20.2 16 Este 22 Este 0 919.9 -0.1 78
2017-08-17 01:00:00 21.5 14 Sudeste 18 Sudeste 0 920 0.6 72
2017-08-17 00:00:00 22.7 15 Sudeste 25 Sudeste 0 919.9 0.9 62
2017-08-16 23:00:00 23.9 6 Sur 15 Sur 0 920 1.8 56
2017-08-16 22:00:00 25.5 11 Sur 20 Sur 0 919.4 1.4 48
2017-08-16 21:00:00 27.2 14 Sur 31 Sur 0 919 0.9 42
2017-08-16 20:00:00 32 5 Nordeste 20 Nordeste 0 918.2 -0.2 19
2017-08-16 19:00:00 33.6 6 Oeste 21 Oeste 0 918 -0.8 18
2017-08-16 18:00:00 34 6 Oeste 28 Oeste 0 918.1 -1.4 18
2017-08-16 17:00:00 32.7 7 Norte 28 Sudoeste 0 918.4 -1.2 18
2017-08-16 16:00:00 32.8 10 Noroeste 26 Noroeste 0 918.8 -1.3 19
2017-08-16 15:00:00 30.8 12 Norte 24 Noroeste 0 919.5 -1 20
2017-08-16 14:00:00 31.3 7 Oeste 21 Noroeste 0 919.6 -0.9 24
2017-08-16 13:00:00 29.5 4 Sudeste 13 Sur 0 920.1 -0.3 38
2017-08-16 12:00:00 26.4 4 Oeste 16 Sudoeste 0 920.5 0.1 48
2017-08-16 11:00:00 25.1 4 Sur 13 Sudeste 0 920.5 0.4 56
2017-08-16 10:00:00 21.1 0 Calma 7 Sudeste 0 920.4 0.8 78
2017-08-16 09:00:00 17.7 0 Calma 0 Calma 0 920.4 1.1 90
2017-08-16 08:00:00 16.7 2 Noroeste 5 Oeste 0 920.1 0.8 90
2017-08-16 07:00:00 17.3 0 Calma 6 Sur 0 919.6 0 89
2017-08-16 06:00:00 17.5 6 Sudeste 13 Sudeste 0 919.3 -0.4 90
2017-08-16 05:00:00 17.6 9 Sudeste 14 Sudeste 0 919.3 -0.7 89
2017-08-16 04:00:00 17.9 8 Sudeste 15 Sudeste 0 919.6 -0.3 88
2017-08-16 03:00:00 18.3 13 Sudeste 19 Sudeste 0 919.7 -0.3 87
2017-08-16 02:00:00 18.9 16 Sudeste 25 Sudeste 0 920 0.3 85
2017-08-16 01:00:00 19.9 17 Sudeste 23 Sudeste 0 919.9 0.7 78
2017-08-16 00:00:00 21.3 17 Sudeste 24 Sudeste 0 920 1.8 66
2017-08-15 23:00:00 22.8 13 Sudeste 19 Sudeste 0 919.7 2.3 54
2017-08-15 22:00:00 24.3 13 Sur 20 Sudeste 0 919.2 2 48
2017-08-15 21:00:00 25.7 9 Sur 30 Sudoeste 0 918.2 1 42
2017-08-15 20:00:00 27.4 21 Sur 37 Sur 0 917.4 0 36
2017-08-15 19:00:00 30.8 24 Sur 37 Sudoeste 0 917.2 -0.6 27
2017-08-15 18:00:00 33.7 11 Sudoeste 27 Sur 0 917.2 -1.2 22
2017-08-15 17:00:00 34 6 Sudeste 22 Sudoeste 0 917.4 -1.5 22
2017-08-15 16:00:00 33.2 7 Sudoeste 19 Sudoeste 0 917.8 -1.6 22
2017-08-15 15:00:00 32 3 Sur 15 Este 0 918.4 -1.1 24
2017-08-15 14:00:00 30.1 3 Sudeste 21 Sudeste 0 918.9 -1.1 27
2017-08-15 13:00:00 29.6 10 Sur 16 Sur 0 919.4 0.1 30
2017-08-15 12:00:00 27.5 3 Oeste 16 Sudoeste 0 919.5 0 34
2017-08-15 11:00:00 24.5 6 Sudoeste 14 Sudoeste 0 920 0.8 42
2017-08-15 10:00:00 22 5 Sudeste 9 Sudeste 0 919.3 0.7 57
2017-08-15 09:00:00 17.4 5 Sudeste 65 Oeste 0.3 919.5 1 76
2017-08-15 08:00:00 16.2 18 Este 25 Este 0 919.2 0.5 85
2017-08-15 07:00:00 15.3 16 Este 26 Este 0 918.6 -0.2 91
2017-08-15 06:00:00 15.1 21 Este 25 Sudeste 0 918.5 -0.3 90
2017-08-15 05:00:00 15.4 19 Sudeste 24 Sudeste 0 918.7 -0.4 89
2017-08-15 04:00:00 16 19 Sudeste 26 Sudeste 0 918.8 -0.6 88
2017-08-15 03:00:00 16.2 19 Sudeste 24 Sudeste 0 918.8 -0.2 88
2017-08-15 02:00:00 17 15 Sudeste 26 Sudeste 0 919.1 0.5 84
2017-08-15 01:00:00 17.6 19 Sudeste 31 Sudeste 0 919.4 1.6 81
2017-08-15 00:00:00 18.6 21 Sudeste 36 Sudeste 0 919 1.9 75
2017-08-14 23:00:00 20.7 21 Sudeste 27 Sudeste 0 918.6 2.1 50
2017-08-14 22:00:00 22 17 Sur 31 Sur 0 917.8 1.2 37
2017-08-14 21:00:00 24.4 21 Sur 34 Sur 0 917.1 0.3 28
2017-08-14 20:00:00 26.6 24 Sur 36 Sur 0 916.5 -0.5 26
2017-08-14 19:00:00 27.7 22 Sur 34 Sudeste 0 916.6 -0.5 27
2017-08-14 18:00:00 28.7 21 Sur 39 Sur 0 916.8 -1 25
2017-08-14 17:00:00 29.3 21 Sur 36 Sur 0 917 -1.1 22
2017-08-14 16:00:00 29.3 21 Sur 39 Sur 0 917.1 -1.4 24
2017-08-14 15:00:00 28.5 25 Sudeste 39 Sudeste 0 917.8 -1.1 25
2017-08-14 14:00:00 28.2 22 Sudeste 37 Sur 0 918.1 -1.1 24
2017-08-14 13:00:00 26.7 16 Sur 31 Sur 0 918.5 -0.6 27
2017-08-14 12:00:00 24.4 17 Sur 26 Sur 0 918.9 0 32
2017-08-14 11:00:00 21.6 17 Sudeste 26 Sudeste 0 919.2 1.1 44
2017-08-14 10:00:00 18 15 Sudeste 21 Sudeste 0 919.1 1.1 72
2017-08-14 09:00:00 14.8 14 Sudeste 22 Sudeste 0 918.9 0.8 92
2017-08-14 08:00:00 14.3 14 Sudeste 19 Sudeste 0 918.1 -0.2 93
2017-08-14 07:00:00 14.4 14 Sudeste 19 Sudeste 0 918 -0.3 93
2017-08-14 06:00:00 14.1 15 Sudeste 20 Sudeste 0 918.1 -0.3 92
2017-08-14 05:00:00 14.8 13 Sudeste 22 Sur 0 918.3 -0.6 90
2017-08-14 04:00:00 15.7 17 Sudeste 24 Sur 0 918.3 -0.7 89
2017-08-14 03:00:00 15.3 15 Sur 20 Sur 0 918.4 -0.5 89
2017-08-14 02:00:00 15.7 14 Sur 21 Sudeste 0 918.9 0.2 84
2017-08-14 01:00:00 16.5 15 Sudeste 23 Sur 0 919 1.1 81
2017-08-14 00:00:00 17.6 18 Sur 23 Sur 0 918.9 1.6 73
2017-08-13 23:00:00 19 15 Sur 22 Sur 0 918.7 2 61
2017-08-13 22:00:00 21.1 15 Sur 27 Sur 0 917.9 1.1 49
2017-08-13 21:00:00 23.3 17 Sur 36 Sur 0 917.3 0.3 39
2017-08-13 20:00:00 25.5 24 Sur 36 Sur 0 916.7 -0.7 34
2017-08-13 19:00:00 27.9 21 Sur 39 Sur 0 916.8 -1.1 32
2017-08-13 18:00:00 29 18 Sur 32 Sur 0 917 -1.4 30
2017-08-13 17:00:00 29.1 19 Sur 40 Sur 0 917.4 -1.7 31
2017-08-13 16:00:00 28.5 19 Sur 33 Sudeste 0 917.9 -1.8 32
2017-08-13 15:00:00 27.9 17 Sur 35 Sudeste 0 918.4 -1.5 34
2017-08-13 14:00:00 26.6 18 Sur 40 Sur 0 919.1 -1.1 37
2017-08-13 13:00:00 25.7 17 Sur 32 Sur 0 919.7 -0.5 39
2017-08-13 12:00:00 23.4 17 Sur 27 Sur 0 919.9 0.2 42
2017-08-13 11:00:00 21.6 13 Sur 23 Sur 0 920.2 1 49
2017-08-13 10:00:00 18.9 13 Sudeste 19 Sudeste 0 920.2 1.3 62
2017-08-13 09:00:00 14.6 12 Sudeste 16 Sudeste 0 919.7 0.8 87
2017-08-13 08:00:00 12.7 13 Este 18 Sudeste 0 919.2 0 88
2017-08-13 07:00:00 12 14 Sudeste 18 Sudeste 0 918.9 -0.5 84
2017-08-13 06:00:00 12.4 14 Sudeste 17 Sudeste 0 918.9 -1.1 82
2017-08-13 05:00:00 13 14 Sudeste 18 Sudeste 0 919.2 -1.2 82
2017-08-13 04:00:00 13.7 15 Sudeste 19 Sudeste 0 919.4 -1.4 79
2017-08-13 03:00:00 14.3 14 Sudeste 19 Sudeste 0 920 -0.8 76
2017-08-13 02:00:00 14.8 15 Sudeste 19 Sudeste 0 920.4 -0.4 74
2017-08-13 01:00:00 16 13 Sudeste 22 Sudeste 0 920.8 0.5 66
2017-08-13 00:00:00 17 14 Sudeste 20 Sur 0 920.8 0.9 60
2017-08-12 23:00:00 18.2 11 Sur 21 Sur 0 920.8 1.7 54
2017-08-12 22:00:00 19.6 17 Sur 30 Sur 0 920.3 1.2 47
2017-08-12 21:00:00 22.2 17 Sur 31 Sur 0 919.9 0.5 36
2017-08-12 20:00:00 26.2 15 Sur 24 Sur 0 919.1 -0.5 30
2017-08-12 19:00:00 27.8 15 Sudeste 27 Sur 0 919.1 -0.9 27
2017-08-12 18:00:00 28.7 12 Sur 25 Sudeste 0 919.4 -1.2 25
2017-08-12 17:00:00 29.1 11 Sur 26 Sudeste 0 919.6 -1.6 25
2017-08-12 16:00:00 28.5 12 Sur 30 Sur 0 920 -1.6 27
2017-08-12 15:00:00 27.1 15 Sur 28 Sur 0 920.6 -1.4 29
2017-08-12 14:00:00 26.3 15 Sur 31 Sudoeste 0 921.2 -1.1 31
2017-08-12 13:00:00 24.7 15 Sur 28 Sudeste 0 921.6 -0.7 34
2017-08-12 12:00:00 22.9 15 Sur 30 Sur 0 922 0.3 38
2017-08-12 11:00:00 20.7 20 Sudeste 30 Sudeste 0 922.3 0.5 39
2017-08-12 10:00:00 18 19 Sur 26 Sur 0 922.3 1.1 57
2017-08-12 09:00:00 15 14 Sudeste 21 Sudeste 0 921.7 1 87
2017-08-12 08:00:00 14.5 11 Sudeste 18 Sur 0 921.8 0.8 90
2017-08-12 07:00:00 14.5 12 Sur 51 Sudeste 0 921.2 -0.1 90
2017-08-12 06:00:00 15 15 Sur 21 Sur 0 920.7 -0.5 90
2017-08-12 05:00:00 14.8 16 Sudeste 22 Sudeste 0 921 -0.5 91
2017-08-12 04:00:00 14.6 14 Sudeste 21 Sudeste 0 921.3 -0.1 89
2017-08-12 03:00:00 15.5 15 Sudeste 31 Sudeste 0 921.2 0.1 82
2017-08-12 02:00:00 16.5 22 Sudeste 31 Sudeste 0 921.5 0.9 82
2017-08-12 01:00:00 16.6 16 Sudeste 24 Sudeste 0 921.4 1.2 77
2017-08-12 00:00:00 17.5 14 Sur 19 Sudeste 0 921.1 2 70
2017-08-11 23:00:00 19.1 13 Sur 23 Sur 0 920.6 1.9 59
2017-08-11 22:00:00 20.5 19 Sudeste 29 Sudeste 0 920.2 1.6 49
2017-08-11 21:00:00 24.4 6 Nordeste 15 Norte 0 919.1 0.3 23
2017-08-11 20:00:00 27 6 Norte 18 Noroeste 0 918.7 -0.6 21
2017-08-11 19:00:00 27.4 6 Norte 21 Noroeste 0 918.6 -1 19
2017-08-11 18:00:00 28.9 7 Oeste 19 Oeste 0 918.8 -1.2 19
2017-08-11 17:00:00 27.6 4 Noroeste 23 Sudoeste 0 919.3 -1.2 22
2017-08-11 16:00:00 27.4 7 Noroeste 26 Norte 0 919.6 -1.4 25
2017-08-11 15:00:00 26.8 6 Noroeste 20 Norte 0 920 -1.5 27
2017-08-11 14:00:00 25.8 6 Sudoeste 18 Sur 0 920.5 -1 30
2017-08-11 13:00:00 25 8 Sudoeste 18 Sudoeste 0 921 -0.5 36
2017-08-11 12:00:00 23.1 5 Sur 17 Sur 0 921.5 -0.1 46
2017-08-11 11:00:00 20.5 9 Sur 18 Sudoeste 0 921.5 0.2 57
2017-08-11 10:00:00 17.8 11 Sur 19 Sur 0 921.5 0.3 69
2017-08-11 09:00:00 16.1 13 Sur 20 Sur 0 921.6 0.6 80
2017-08-11 08:00:00 15 7 Sur 13 Sur 0 921.3 0.2 85
2017-08-11 07:00:00 14.8 9 Sudeste 15 Sudeste 0 921.2 -0.2 85
2017-08-11 06:00:00 14.9 11 Sur 21 Sur 0 921 -0.7 86
2017-08-11 05:00:00 15 10 Sur 18 Sudeste 0 921.1 -0.9 83
2017-08-11 04:00:00 14.2 11 Sudeste 17 Sudeste 0 921.4 -0.8 86
2017-08-11 03:00:00 13.7 13 Sudeste 19 Sudeste 0 921.7 -0.1 86
2017-08-11 02:00:00 14.4 12 Sudeste 23 Sudeste 0 922 0.4 85
2017-08-11 01:00:00 14.5 13 Sudeste 21 Sudeste 0 922.2 1.5 83
2017-08-11 00:00:00 15.9 12 Sudeste 21 Sur 0 921.8 1.5 78
2017-08-10 23:00:00 17.4 12 Sudeste 22 Sudeste 0 921.6 1.7 69
2017-08-10 22:00:00 19.2 8 Sur 15 Sur 0 920.7 0.7 39
2017-08-10 21:00:00 21.8 5 Norte 20 Norte 0 920.3 0.3 27
2017-08-10 20:00:00 23.9 10 Norte 19 Noroeste 0 919.9 -0.1 27
2017-08-10 19:00:00 24.6 10 Noroeste 24 Norte 0 920 -0.5 29
2017-08-10 18:00:00 24.5 13 Noroeste 23 Norte 0 920 -0.8 31
2017-08-10 17:00:00 25.4 4 Noroeste 24 Norte 0 920 -1.2 35
2017-08-10 16:00:00 24.3 6 Norte 26 Norte 0 920.5 -1.1 38
2017-08-10 15:00:00 23.9 4 Norte 32 Sudoeste 0 920.8 -1 39
2017-08-10 14:00:00 22.6 6 Sur 15 Sudeste 0 921.2 -0.5 42
2017-08-10 13:00:00 21 2 Sudoeste 15 Este 0 921.6 0.1 48
2017-08-10 12:00:00 19.6 8 Sudeste 17 Sudeste 0 921.8 1 50
2017-08-10 11:00:00 15.6 5 Nordeste 21 Nordeste 0 921.7 1.7 61
2017-08-10 10:00:00 13.2 14 Nordeste 23 Nordeste 0 921.5 2 66
2017-08-10 09:00:00 13.6 4 Nordeste 12 Nordeste 0 920.8 2 67
2017-08-10 08:00:00 13 6 Nordeste 14 Norte 0 920 1.1 67
2017-08-10 07:00:00 13.2 5 Nordeste 27 Nordeste 0 919.5 0.9 68
2017-08-10 06:00:00 13.4 12 Nordeste 28 Nordeste 0 918.8 0.6 66
2017-08-10 05:00:00 14.4 7 Nordeste 27 Nordeste 0 918.9 0.8 75
2017-08-10 04:00:00 14.4 10 Este 32 Este 0 918.6 0.8 81
2017-08-10 03:00:00 14.3 21 Este 40 Sudeste 0.1 918.2 0.9 83
2017-08-10 02:00:00 15 14 Este 40 Sudeste 0.3 918.1 1.8 87
2017-08-10 01:00:00 16.3 15 Este 35 Este 0 917.8 2.4 82
2017-08-10 00:00:00 17.2 28 Este 45 Sudeste 0 917.3 2.6 82
2017-08-09 23:00:00 19 25 Sudeste 38 Sudeste 0 916.3 2.5 78
2017-08-09 22:00:00 20.1 27 Sudeste 40 Sudeste 0 915.4 2.1 72
2017-08-09 21:00:00 22.2 23 Sudeste 41 Sudeste 0 914.7 1.1 59
2017-08-09 20:00:00 28.5 9 Norte 29 Norte 0 913.8 0.2 16
2017-08-09 19:00:00 29.7 12 Noroeste 40 Noroeste 0 913.3 -0.7 15
2017-08-09 18:00:00 30.4 15 Oeste 37 Noroeste 0 913.6 -1 14
2017-08-09 17:00:00 30.2 15 Oeste 33 Oeste 0 913.6 -1.2 15
2017-08-09 16:00:00 30.7 12 Sudoeste 31 Sudoeste 0 914 -1.4 16
2017-08-09 15:00:00 27.2 7 Noroeste 30 Sudoeste 0 914.6 -1 32
2017-08-09 14:00:00 28 12 Sur 28 Sudoeste 0 914.8 -1.2 31
2017-08-09 13:00:00 25.7 9 Sudoeste 35 Sur 0 915.4 -0.7 37
2017-08-09 12:00:00 23.9 22 Sur 35 Sur 0 915.6 -0.4 47
2017-08-09 11:00:00 22.6 16 Sur 34 Sur 0 916 0 54
2017-08-09 10:00:00 20.1 20 Sudeste 36 Sudeste 0 916.1 0.2 64
2017-08-09 09:00:00 17 27 Sudeste 36 Sudeste 0 916 -0.1 83
2017-08-09 08:00:00 15.1 17 Sudeste 27 Sudeste 0 916 0.1 89
2017-08-09 07:00:00 14.5 14 Sudeste 21 Sudeste 0 915.9 0.1 89
2017-08-09 06:00:00 14.8 8 Sudeste 15 Sudeste 0 916.1 0 85
2017-08-09 05:00:00 15.4 13 Sudeste 28 Sudeste 0 915.9 -0.4 84
2017-08-09 04:00:00 15.9 21 Sudeste 26 Sudeste 0 915.8 -0.8 83
2017-08-09 03:00:00 16.7 16 Sudeste 31 Sudeste 0 916.1 -0.4 78
2017-08-09 02:00:00 16.5 19 Sudeste 27 Sudeste 0 916.3 -0.1 67
2017-08-09 01:00:00 17 20 Este 29 Este 0 916.6 0.9 61
2017-08-09 00:00:00 18.5 19 Este 23 Sudeste 0 916.5 2 59
2017-08-08 23:00:00 20.4 14 Este 26 Sudeste 0 916.4 2.1 25
2017-08-08 22:00:00 22.2 10 Nordeste 21 Norte 0 915.7 1.5 20
2017-08-08 21:00:00 24.9 15 Norte 41 Norte 0 914.5 0.5 19
2017-08-08 20:00:00 26.8 24 Norte 39 Norte 0 914.3 0.2 17
2017-08-08 19:00:00 27.8 21 Norte 41 Norte 0 914.2 0.1 17
2017-08-08 18:00:00 28.5 18 Noroeste 42 Noroeste 0 914 -0.6 17
2017-08-08 17:00:00 29 22 Noroeste 44 Noroeste 0 914.1 -0.6 18
2017-08-08 16:00:00 28.6 20 Noroeste 42 Noroeste 0 914.1 -1 19
2017-08-08 15:00:00 28.1 21 Noroeste 41 Norte 0 914.6 -0.4 20
2017-08-08 14:00:00 26.9 21 Noroeste 39 Norte 0 914.7 -0.3 21
2017-08-08 13:00:00 26.3 19 Noroeste 37 Noroeste 0 915.1 0.6 22
2017-08-08 12:00:00 23.6 19 Noroeste 33 Noroeste 0 915 0.8 26
2017-08-08 11:00:00 20.6 20 Noroeste 34 Noroeste 0 915 1.1 29
2017-08-08 10:00:00 20.5 14 Noroeste 35 Noroeste 0 914.5 0.7 30
2017-08-08 09:00:00 19.9 14 Noroeste 29 Noroeste 0 914.2 0.8 29
2017-08-08 08:00:00 19.5 16 Norte 30 Noroeste 0 913.9 0.3 27
2017-08-08 07:00:00 20 18 Norte 30 Norte 0 913.8 0.2 27
2017-08-08 06:00:00 21.9 13 Noroeste 27 Norte 0 913.4 -0.6 26
2017-08-08 05:00:00 22.6 12 Norte 30 Noroeste 0 913.6 -0.9 26
2017-08-08 04:00:00 24.4 14 Noroeste 23 Noroeste 0 913.6 -1.4 31
2017-08-08 03:00:00 23.2 4 Noroeste 14 Noroeste 0 914 -1.1 39
2017-08-08 02:00:00 23.7 6 Norte 9 Norte 0 914.5 -0.3 49
2017-08-08 01:00:00 23.3 0 Calma 6 Nordeste 0 915 0.7 56
2017-08-08 00:00:00 23.8 0 Calma 13 Sur 0 915.1 0.9 54
2017-08-07 23:00:00 25.2 10 Sur 24 Sur 0 914.8 0.3 50
2017-08-07 22:00:00 25.9 7 Sur 22 Sur 0 914.3 -0.5 46
2017-08-07 21:00:00 27.7 15 Sur 31 Sur 0 914.2 0.1 42
2017-08-07 20:00:00 28.8 17 Sur 29 Sur 0 914.5 -0.3 41
2017-08-07 19:00:00 29.6 21 Sur 37 Sur 0 914.8 -0.1 36
2017-08-07 18:00:00 31.5 23 Sur 36 Sur 0 914.1 -1.2 32
2017-08-07 17:00:00 33.3 18 Sur 30 Sur 0 914.8 -1.2 25
2017-08-07 16:00:00 35.6 8 Sur 32 Sudoeste 0 914.9 -1.9 22
2017-08-07 15:00:00 34.6 12 Sudoeste 29 Sudoeste 0 915.3 -1.9 22
2017-08-07 14:00:00 33.4 14 Sudoeste 28 Oeste 0 916 -1.4 23
2017-08-07 13:00:00 31.4 15 Sudoeste 30 Oeste 0 916.8 -0.5 28
2017-08-07 12:00:00 28.1 4 Sudoeste 15 Sur 0 917.2 0.1 39
2017-08-07 11:00:00 25.1 9 Sur 15 Sudeste 0 917.4 0.4 56
2017-08-07 10:00:00 21.9 10 Sudeste 17 Sudeste 0 917.3 -0.2 71
2017-08-07 09:00:00 20.1 13 Sudeste 23 Sudeste 0 917.1 -0.3 87
2017-08-07 08:00:00 18.2 15 Este 19 Este 0 917 -0.4 92
2017-08-07 07:00:00 18.1 13 Sudeste 18 Sudeste 0 917.5 0.2 92
2017-08-07 06:00:00 18.7 10 Sur 18 Sur 0 917.4 -0.2 91
2017-08-07 05:00:00 19.1 13 Sur 21 Sur 0 917.4 -0.5 90
2017-08-07 04:00:00 19 13 Sudeste 26 Sudeste 0 917.3 -0.9 90
2017-08-07 03:00:00 18.4 16 Sudeste 23 Sudeste 0 917.6 -0.6 90
2017-08-07 02:00:00 19.5 18 Sudeste 32 Sudeste 0 917.9 -0.1 86
2017-08-07 01:00:00 20.3 20 Sudeste 30 Sur 0 918.2 1.1 81
2017-08-07 00:00:00 21 22 Sur 33 Sur 0 918.2 1.6 79
2017-08-06 23:00:00 22.2 19 Sur 31 Sur 0 918 2 74
2017-08-06 22:00:00 23.5 24 Sudeste 45 Sudeste 0 917.1 1.1 72
2017-08-06 21:00:00 25.2 30 Sudeste 49 Sudeste 0 916.6 0.6 63
2017-08-06 20:00:00 27.4 33 Sudeste 48 Sudeste 0 916 0.1 53
2017-08-06 19:00:00 29.2 30 Sudeste 50 Sudeste 0 916 -0.3 46
2017-08-06 18:00:00 31 33 Sudeste 57 Sudeste 0 916 -0.6 42
2017-08-06 17:00:00 31.6 33 Sudeste 51 Sudeste 0 915.9 -1.2 39
2017-08-06 16:00:00 32.9 26 Sudeste 43 Sur 0 916.3 -1.2 35
2017-08-06 15:00:00 33 21 Sur 41 Sudeste 0 916.6 -1.2 34
2017-08-06 14:00:00 32.9 18 Sur 33 Sudeste 0 917.1 -0.5 35
2017-08-06 13:00:00 32.8 16 Sudeste 28 Sur 0 917.5 0.1 36
2017-08-06 12:00:00 30.4 14 Sudeste 24 Sudeste 0 917.8 0.5 42
2017-08-06 11:00:00 28 14 Sur 39 Este 0 917.6 0.6 48
2017-08-06 10:00:00 25.7 17 Sudeste 27 Sudeste 0 917.4 1 55
2017-08-06 09:00:00 21.3 16 Este 23 Este 0 917.3 1.3 66
2017-08-06 08:00:00 18.7 14 Este 19 Este 0 917 1 67
2017-08-06 07:00:00 19 7 Sudeste 13 Sudeste 0 916.4 0.1 66
2017-08-06 06:00:00 20.2 6 Sudeste 15 Sudeste 0 916 -0.3 63
2017-08-06 05:00:00 19.8 12 Sudeste 16 Este 0 916 -0.4 63
2017-08-06 04:00:00 20.9 10 Sudeste 22 Sudeste 0 916.3 -0.3 62
2017-08-06 03:00:00 21.3 12 Sudeste 25 Sur 0 916.3 -0.2 67
2017-08-06 02:00:00 21.1 16 Sudeste 28 Sudeste 0 916.4 0.4 79
2017-08-06 01:00:00 22.3 21 Sudeste 33 Sudeste 0 916.6 1 70
2017-08-06 00:00:00 23.6 27 Sudeste 36 Sudeste 0 916.5 1.3 49
2017-08-05 23:00:00 25.6 17 Sudeste 29 Sudeste 0 916 1.3 50
2017-08-05 22:00:00 27.5 10 Sur 28 Sur 0 915.6 1.3 46
2017-08-05 21:00:00 29 17 Sur 32 Sur 0 915.2 0.6 44
2017-08-05 20:00:00 30.8 18 Sur 39 Sur 0 914.7 -0.2 39
2017-08-05 19:00:00 33.6 21 Sur 35 Sur 0 914.3 -1.2 32
2017-08-05 18:00:00 35.5 20 Sur 38 Sur 0 914.6 -1.4 29
2017-08-05 17:00:00 36.3 20 Sur 40 Sur 0 914.9 -1.8 27
2017-08-05 16:00:00 36.1 19 Sur 35 Sur 0 915.5 -1.7 26
2017-08-05 15:00:00 36.4 15 Sur 33 Sudoeste 0 916 -1.4 26
2017-08-05 14:00:00 35.3 15 Sur 35 Sur 0 916.7 -0.8 28
2017-08-05 13:00:00 33.8 17 Sur 31 Sur 0 917.2 -0.3 31
2017-08-05 12:00:00 31.7 18 Sur 26 Sur 0 917.4 0 35
2017-08-05 11:00:00 30 14 Sudeste 24 Sur 0 917.5 0.2 40
2017-08-05 10:00:00 27.3 15 Sudeste 22 Sudeste 0 917.5 0.5 44
2017-08-05 09:00:00 23.5 16 Sudeste 22 Este 0 917.4 0.6 54
2017-08-05 08:00:00 21 16 Este 22 Este 0 917.3 0.6 56
2017-08-05 07:00:00 20.6 18 Este 24 Sudeste 0 917 0.1 55
2017-08-05 06:00:00 20.8 15 Sudeste 21 Este 0 916.8 -0.1 53
2017-08-05 05:00:00 21.5 19 Este 23 Este 0 916.7 -0.5 53
2017-08-05 04:00:00 22.4 15 Sudeste 24 Sudeste 0 916.9 -0.5 51
2017-08-05 03:00:00 23.3 15 Sudeste 22 Sudeste 0 916.9 -0.8 51
2017-08-05 02:00:00 24.2 10 Sudeste 18 Sur 0 917.2 -0.5 50
2017-08-05 01:00:00 25.2 10 Sur 21 Sur 0 917.4 0.2 49
2017-08-05 00:00:00 25.6 10 Sudeste 21 Sur 0 917.7 1.2 47
2017-08-04 23:00:00 26.7 9 Sudeste 18 Sudeste 0 917.7 2 45
2017-08-04 22:00:00 28.2 10 Sudeste 21 Sur 0 917.2 1.5 40
2017-08-04 21:00:00 30.5 19 Sur 27 Sur 0 916.5 0.6 34
2017-08-04 20:00:00 35.2 6 Norte 18 Norte 0 915.7 -0.5 19
2017-08-04 19:00:00 36 3 Noroeste 22 Noroeste 0 915.7 -1 18
2017-08-04 18:00:00 36.6 4 Noroeste 24 Oeste 0 915.9 -1.3 18
2017-08-04 17:00:00 37.3 11 Sudoeste 28 Oeste 0 916.2 -1.5 18
2017-08-04 16:00:00 37.1 8 Sudoeste 24 Oeste 0 916.7 -1.5 17
2017-08-04 15:00:00 36.1 10 Oeste 22 Sudoeste 0 917.2 -1.2 18
2017-08-04 14:00:00 34.5 6 Norte 21 Noroeste 0 917.7 -0.7 19
2017-08-04 13:00:00 34.1 5 Oeste 15 Oeste 0 918.2 -0.1 22
2017-08-04 12:00:00 32.6 3 Oeste 13 Noroeste 0 918.4 0.1 25
2017-08-04 11:00:00 29 5 Norte 12 Noroeste 0 918.4 0.3 29
2017-08-04 10:00:00 26.6 2 Oeste 13 Noroeste 0 918.3 0.5 32
2017-08-04 09:00:00 22.7 0 Calma 5 Norte 0 918.3 0.8 43
2017-08-04 08:00:00 20.5 0 Calma 15 Noroeste 0 918.1 0.5 42
2017-08-04 07:00:00 20.2 4 Noroeste 6 Noroeste 0 917.8 0.2 49
2017-08-04 06:00:00 20.8 0 Calma 0 Calma 0 917.5 -0.1 73
2017-08-04 05:00:00 21.3 0 Calma 8 Sudeste 0 917.6 -0.5 71
2017-08-04 04:00:00 21.7 6 Sudeste 11 Este 0 917.6 -0.8 71
2017-08-04 03:00:00 22.1 5 Sudeste 11 Sudeste 0 917.6 -0.7 69
2017-08-04 02:00:00 22.3 9 Sudeste 18 Este 0 918.1 0.1 65
2017-08-04 01:00:00 23.6 11 Sudeste 25 Sudeste 0 918.4 0.7 53
2017-08-04 00:00:00 24.7 13 Este 23 Este 0 918.3 1.2 43
2017-08-03 23:00:00 26.4 10 Norte 12 Norte 0 918 1.4 28
2017-08-03 22:00:00 27.5 8 Norte 9 Norte 0 917.7 1 27
2017-08-03 21:00:00 30.6 8 Norte 19 Norte 0 917.1 0.3 24
2017-08-03 20:00:00 32.3 13 Norte 26 Nordeste 0 916.6 -0.6 22
2017-08-03 19:00:00 33.1 14 Noroeste 28 Noroeste 0 916.7 -1.1 22
2017-08-03 18:00:00 34.4 4 Noroeste 30 Norte 0 916.8 -1.2 22
2017-08-03 17:00:00 35.1 6 Oeste 22 Noroeste 0 917.2 -1.1 22
2017-08-03 16:00:00 33.9 6 Noroeste 24 Noroeste 0 917.8 -0.8 22
2017-08-03 15:00:00 32.9 11 Noroeste 25 Noroeste 0 918 -1.1 25
2017-08-03 14:00:00 32.2 9 Noroeste 26 Noroeste 0 918.3 -1 32
2017-08-03 13:00:00 30.6 7 Norte 27 Noroeste 0 918.6 -1.1 39
2017-08-03 12:00:00 28.9 9 Oeste 18 Oeste 0 919.1 -0.4 46
2017-08-03 11:00:00 26.7 10 Oeste 16 Oeste 0 919.3 0.1 51
2017-08-03 10:00:00 24.4 0 Calma 5 Sur 0 919.7 0.7 65
2017-08-03 09:00:00 19.5 0 Calma -- -- 0 919.5 0.8 78
2017-08-03 08:00:00 18.7 0 Calma 3 Norte 0 919.2 0.7 80
2017-08-03 07:00:00 19 0 Calma 8 Este 0 919 0.4 79
2017-08-03 06:00:00 19.1 7 Este 18 Sudeste 0 918.7 0.2 78
2017-08-03 05:00:00 18.7 14 Este 18 Este 0 918.5 -0.5 78
2017-08-03 04:00:00 18.9 15 Este 19 Este 0 918.6 -0.8 77
2017-08-03 03:00:00 19.5 12 Este 19 Este 0 918.5 -1 76
2017-08-03 02:00:00 19.8 14 Este 18 Este 0 919 -0.5 74
2017-08-03 01:00:00 19.9 15 Este 20 Este 0 919.4 0.9 72
2017-08-03 00:00:00 20.9 16 Sudeste 25 Sudeste 0 919.5 1.7 68
2017-08-02 23:00:00 22.3 18 Sudeste 26 Este 0 919.5 2.6 65
2017-08-02 22:00:00 23.4 19 Sudeste 33 Sudeste 0 918.5 1.5 62
2017-08-02 21:00:00 25.2 26 Sudeste 40 Sudeste 0 917.8 0.7 53
2017-08-02 20:00:00 28 27 Sudeste 40 Sudeste 0 916.9 -0.5 43
2017-08-02 19:00:00 29.6 24 Sur 42 Sudeste 0 917 -0.7 40
2017-08-02 18:00:00 30.4 23 Sudeste 40 Sudeste 0 917.1 -0.7 39
2017-08-02 17:00:00 30.9 24 Sur 43 Sudeste 0 917.4 -0.4 38
2017-08-02 16:00:00 29.7 33 Sudeste 50 Sudeste 0 917.7 -0.7 36
2017-08-02 15:00:00 30.7 29 Sur 50 Sudeste 0 917.8 -0.7 35
2017-08-02 14:00:00 31.1 24 Sur 44 Sur 0 917.8 -1 32
2017-08-02 13:00:00 30.5 15 Sur 31 Sudeste 0 918.4 -0.4 35
2017-08-02 12:00:00 29.5 15 Sudeste 25 Sur 0 918.5 -0.2 38
2017-08-02 11:00:00 26.8 6 Sudeste 15 Este 0 918.8 0.5 46
2017-08-02 10:00:00 22.8 5 Norte 10 Norte 0 918.8 0.4 58
2017-08-02 09:00:00 21.3 0 Calma 18 Sudeste 0 918.7 0.4 59
2017-08-02 08:00:00 19.5 7 Este 18 Nordeste 0 918.3 0.2 69
2017-08-02 07:00:00 19.1 8 Este 18 Este 0 918.4 -0.1 73
2017-08-02 06:00:00 19.1 10 Este 17 Sudeste 0 918.3 -0.2 72
2017-08-02 05:00:00 19.5 2 Sudeste 12 Sudeste 0 918.1 -0.6 71
2017-08-02 04:00:00 20.1 8 Sur 14 Sur 0 918.5 -0.1 70
2017-08-02 03:00:00 20.1 4 Sur 9 Sur 0 918.5 0.2 72
2017-08-02 02:00:00 20.5 5 Sur 10 Sur 0 918.7 0.8 72
2017-08-02 01:00:00 21.4 4 Sudoeste 28 Sudeste 0 918.6 0.6 66
2017-08-02 00:00:00 22.2 22 Sur 31 Sudeste 0 918.3 1.9 67
2017-08-01 23:00:00 22.3 14 Sudeste 40 Sur 0 917.9 2.3 77
2017-08-01 22:00:00 23.1 11 Sur 46 Sur 0 918 2.3 72
2017-08-01 21:00:00 25.6 13 Sudeste 23 Sudeste 0 916.4 0.8 46
2017-08-01 20:00:00 26.3 9 Este 19 Este 0 915.6 0.8 40
2017-08-01 19:00:00 26.7 5 Este 21 Norte 0 915.7 0.1 36
2017-08-01 18:00:00 26.2 12 Norte 32 Norte 0 915.6 0.2 36
2017-08-01 17:00:00 28.7 14 Sudoeste 36 Norte 0 914.8 -1.5 31
2017-08-01 16:00:00 27.6 13 Sudoeste 33 Sur 0 915.6 -1.1 34
2017-08-01 15:00:00 25 22 Sudeste 37 Sudeste 0.1 915.4 -0.3 40
2017-08-01 14:00:00 23.6 12 Sudeste 41 Sur 0.1 916.3 1.1 40
2017-08-01 13:00:00 25.4 8 Noroeste 21 Noroeste 0 916.7 1.3 33
2017-08-01 12:00:00 24 14 Norte 27 Norte 0 915.7 1.1 37
2017-08-01 11:00:00 22.7 4 Norte 22 Noroeste 0 915.2 1.4 45
2017-08-01 10:00:00 22.2 10 Noroeste 20 Noroeste 0 915.4 2 58
2017-08-01 09:00:00 19.8 0 Calma 8 Sudeste 0.1 914.6 1.3 74
2017-08-01 08:00:00 19.5 0 Calma 13 Norte 0.2 913.8 0.9 62
2017-08-01 07:00:00 18.3 3 Norte 13 Este 0 913.4 0.5 76
2017-08-01 06:00:00 18.4 12 Sudeste 15 Este 0 913.3 0.6 83
2017-08-01 05:00:00 19.4 0 Calma 7 Sur 0 912.9 0 83
2017-08-01 04:00:00 19.7 3 Sur 8 Sur 0 912.9 -0.7 82
2017-08-01 03:00:00 20.1 3 Este 8 Este 0 912.7 -0.7 79
2017-08-01 02:00:00 20.7 8 Sudeste 19 Sur 0 912.9 0.4 75
2017-08-01 01:00:00 21.5 11 Sur 19 Sur 0 913.6 1.7 69
2017-08-01 00:00:00 22.7 9 Sur 22 Sur 0 913.4 2.5 65
2017-07-31 23:00:00 24.4 13 Sur 30 Sur 0 912.5 2.3 58
2017-07-31 22:00:00 26.9 15 Sur 23 Sur 0 911.9 1.9 48
2017-07-31 21:00:00 29.3 13 Sur 25 Sudoeste 0 910.9 0.5 39
2017-07-31 20:00:00 31.7 16 Sur 28 Sudoeste 0 910.2 -0.5 34
2017-07-31 19:00:00 33.7 16 Sudoeste 27 Sudoeste 0 910 -1.3 28
2017-07-31 18:00:00 35.1 15 Sur 34 Sur 0 910.4 -1.3 25
2017-07-31 17:00:00 36.1 9 Sur 21 Sur 0 910.7 -1.4 24
2017-07-31 16:00:00 35.8 6 Sudoeste 22 Sudoeste 0 911.3 -0.9 25
2017-07-31 15:00:00 34.8 6 Sudoeste 27 Sudoeste 0 911.7 -0.8 25
2017-07-31 14:00:00 33.6 13 Sur 30 Sudoeste 0 912.1 -0.5 26
2017-07-31 13:00:00 32.4 17 Sur 33 Sur 0 912.2 -0.5 28
2017-07-31 12:00:00 31 14 Sur 25 Sur 0 912.5 -0.3 30
2017-07-31 11:00:00 28.8 7 Sur 14 Sur 0 912.6 -0.1 36
2017-07-31 10:00:00 26.7 9 Sudeste 19 Este 0 912.7 0.2 40
2017-07-31 09:00:00 22.1 13 Este 22 Este 0 912.8 0.3 51
2017-07-31 08:00:00 19.5 17 Este 23 Este 0 912.7 -0.1 56
2017-07-31 07:00:00 18.6 16 Este 22 Este 0 912.5 -0.7 59
2017-07-31 06:00:00 18.8 16 Este 20 Sudeste 0 912.5 -0.9 58
2017-07-31 05:00:00 19.2 15 Sudeste 22 Este 0 912.8 -0.8 56
2017-07-31 04:00:00 19.7 15 Sudeste 22 Sudeste 0 913.2 -0.6 56
2017-07-31 03:00:00 20.1 18 Este 24 Este 0 913.4 -0.5 54
2017-07-31 02:00:00 20.7 19 Sudeste 23 Sudeste 0 913.6 0 49
2017-07-31 01:00:00 21.9 18 Sudeste 22 Este 0 913.8 0.7 47
2017-07-31 00:00:00 23.7 17 Sudeste 23 Sudeste 0 913.9 1.3 45
2017-07-30 23:00:00 26.4 17 Sudeste 28 Sudeste 0 913.6 1.3 42
2017-07-30 22:00:00 27.9 4 Sudoeste 26 Sur 0 913.1 0.6 38
2017-07-30 21:00:00 30.6 13 Sur 33 Sur 0 912.6 -0.1 32
2017-07-30 20:00:00 33.4 21 Sur 32 Sur 0 912.3 -0.8 22
2017-07-30 19:00:00 34.9 19 Sur 33 Sur 0 912.5 -1.1 20
2017-07-30 18:00:00 36.6 14 Sur 35 Sudoeste 0 912.7 -1.3 18
2017-07-30 17:00:00 37.8 8 Sur 38 Sudeste 0 913.1 -1.4 18
2017-07-30 16:00:00 37.3 15 Sur 31 Sur 0 913.6 -1.4 18
2017-07-30 15:00:00 36.8 14 Sudoeste 31 Sur 0 914 -1.2 19
2017-07-30 14:00:00 36.2 9 Sudoeste 21 Oeste 0 914.5 -1 21
2017-07-30 13:00:00 34.3 3 Sudoeste 18 Sudoeste 0 915 -0.7 23
2017-07-30 12:00:00 33.3 3 Oeste 15 Sudoeste 0 915.2 -0.7 25
2017-07-30 11:00:00 29.7 2 Noroeste 18 Noroeste 0 915.5 -0.4 29
2017-07-30 10:00:00 27 10 Norte 18 Norte 0 915.7 -0.2 32
2017-07-30 09:00:00 23.3 0 Calma 10 Norte 0 915.9 -0.1 36
2017-07-30 08:00:00 21.3 6 Norte 15 Norte 0 915.9 -0.1 36
2017-07-30 07:00:00 21.1 11 Norte 21 Noroeste 0 915.9 -0.3 36
2017-07-30 06:00:00 20.5 0 Calma 9 Noroeste 0 916 -0.5 43
2017-07-30 05:00:00 20.3 0 Calma 4 Oeste 0 916 -0.9 53
2017-07-30 04:00:00 20.6 0 Calma 8 Sudeste 0 916.2 -0.7 62
2017-07-30 03:00:00 21.3 5 Sudeste 9 Sudeste 0 916.5 -0.7 59
2017-07-30 02:00:00 22.5 5 Sur 11 Sudeste 0 916.9 -0.4 56
2017-07-30 01:00:00 23.3 5 Sudeste 17 Sur 0 916.9 0 55
2017-07-30 00:00:00 24.2 9 Sudeste 15 Sudeste 0 917.2 0.9 52
2017-07-29 23:00:00 25.3 5 Sur 15 Sudoeste 0 917.3 1.8 48
2017-07-29 22:00:00 27.3 4 Sur 12 Sur 0 916.9 1.4 43
2017-07-29 21:00:00 29.3 5 Sudoeste 31 Sur 0 916.3 0.2 37
2017-07-29 20:00:00 32.6 18 Sur 28 Sudoeste 0 915.5 -0.6 24
2017-07-29 19:00:00 34.7 6 Sur 27 Sur 0 915.5 -1.3 18
2017-07-29 18:00:00 35.5 4 Sudoeste 27 Sur 0 916.1 -1.1 18
2017-07-29 17:00:00 36.6 14 Sudoeste 29 Sudoeste 0 916.1 -1.4 18
2017-07-29 16:00:00 36.5 4 Oeste 24 Sudoeste 0 916.8 -1.3 19
2017-07-29 15:00:00 35.3 5 Sudoeste 25 Sudoeste 0 917.2 -1.3 19
2017-07-29 14:00:00 34.5 8 Sudoeste 18 Sudoeste 0 917.5 -0.8 21
2017-07-29 13:00:00 33.1 2 Oeste 15 Sudoeste 0 918.1 -0.5 24
2017-07-29 12:00:00 30.5 5 Sudoeste 15 Sudoeste 0 918.5 0.1 29
2017-07-29 11:00:00 28.3 0 Calma 9 Sudeste 0 918.3 0.2 36
2017-07-29 10:00:00 25 4 Sur 9 Este 0 918.6 0.8 43
2017-07-29 09:00:00 20.8 4 Sudeste 11 Sudeste 0 918.4 0.9 50
2017-07-29 08:00:00 18.1 6 Sudeste 11 Sudeste 0 918.1 0.7 54
2017-07-29 07:00:00 17.8 7 Sudeste 11 Sudeste 0 917.8 0.4 54
2017-07-29 06:00:00 18.3 9 Sudeste 13 Sudeste 0 917.5 -0.3 54
2017-07-29 05:00:00 19.1 8 Sudeste 14 Sudeste 0 917.4 -0.5 54
2017-07-29 04:00:00 19.7 9 Sudeste 18 Sudeste 0 917.4 -0.5 56
2017-07-29 03:00:00 19.3 13 Sudeste 18 Sudeste 0 917.8 -0.1 56
2017-07-29 02:00:00 20.2 14 Sudeste 25 Sudeste 0 917.9 -0.1 53
2017-07-29 01:00:00 20.6 18 Este 23 Este 0 917.9 0.7 46
2017-07-29 00:00:00 21.8 18 Sudeste 22 Sudeste 0 917.9 1.3 41
2017-07-28 23:00:00 24 14 Sudeste 21 Sudeste 0 918 2.3 39
2017-07-28 22:00:00 26 10 Sudeste 22 Sur 0 917.2 1.7 37
2017-07-28 21:00:00 28.3 18 Sur 35 Sur 0 916.6 1.2 33
2017-07-28 20:00:00 31.1 19 Sur 28 Sur 0 915.7 -0.2 29
2017-07-28 19:00:00 34.3 15 Sudoeste 27 Sudoeste 0 915.5 -0.9 21
2017-07-28 18:00:00 36.5 4 Oeste 21 Sudoeste 0 915.4 -1.4 18
2017-07-28 17:00:00 36.5 13 Sudoeste 28 Sudoeste 0 915.9 -1.3 19
2017-07-28 16:00:00 35 12 Noroeste 27 Oeste 0 916.4 -0.7 19
2017-07-28 15:00:00 35.8 7 Sudoeste 27 Sudoeste 0 916.8 -0.6 20
2017-07-28 14:00:00 34 6 Noroeste 22 Norte 0 917.2 -0.3 21
2017-07-28 13:00:00 33.1 5 Norte 18 Norte 0 917.1 -0.4 23
2017-07-28 12:00:00 31 6 Noroeste 19 Norte 0 917.4 -0.1 27
2017-07-28 11:00:00 28.1 10 Noroeste 21 Noroeste 0 917.5 0.3 30
2017-07-28 10:00:00 26.5 10 Noroeste 18 Oeste 0 917.5 0.6 32
2017-07-28 09:00:00 23.4 10 Norte 18 Noroeste 0 917.5 1 36
2017-07-28 08:00:00 21.1 0 Calma 9 Noroeste 0 917.2 0.9 40
2017-07-28 07:00:00 20 0 Calma 6 Norte 0 916.9 0.7 43
2017-07-28 06:00:00 20 0 Calma 5 Sudeste 0 916.5 0 48
2017-07-28 05:00:00 20.3 4 Sudeste 9 Sudeste 0 916.3 -0.2 47
2017-07-28 04:00:00 20.4 8 Este 12 Sudeste 0 916.2 -0.2 46
2017-07-28 03:00:00 21 9 Sudeste 14 Sudeste 0 916.5 0.3 45
2017-07-28 02:00:00 21.8 8 Sudeste 13 Sudeste 0 916.5 0.2 42
2017-07-28 01:00:00 22.8 9 Sudeste 18 Sudeste 0 916.4 0.7 39
2017-07-28 00:00:00 23.7 11 Sudeste 21 Sur 0 916.2 1.2 37
2017-07-27 23:00:00 24.5 6 Sur 19 Sur 0 916.3 1.7 36
2017-07-27 22:00:00 26.2 14 Sudoeste 27 Sudoeste 0 915.7 1.3 31
2017-07-27 21:00:00 28.3 18 Sur 34 Sudoeste 0 915 0.4 26
2017-07-27 20:00:00 31 19 Sur 32 Sur 0 914.6 -0.3 24
2017-07-27 19:00:00 33.5 14 Sudoeste 24 Sur 0 914.4 -1.1 22
2017-07-27 18:00:00 34.9 13 Sur 33 Sudoeste 0 914.6 -1.4 21
2017-07-27 17:00:00 33.9 6 Oeste 27 Oeste 0 914.9 -1.4 21
2017-07-27 16:00:00 34.1 15 Sudoeste 31 Oeste 0 915.5 -1.3 21
2017-07-27 15:00:00 33.9 4 Oeste 28 Sudoeste 0 916 -1.2 22
2017-07-27 14:00:00 33 8 Sudoeste 23 Sudoeste 0 916.3 -0.9 25
2017-07-27 13:00:00 31.8 9 Sudoeste 19 Sur 0 916.8 -0.8 27
2017-07-27 12:00:00 29.7 6 Sudoeste 15 Sudoeste 0 917.2 -0.4 32
2017-07-27 11:00:00 27.7 7 Sur 14 Sudeste 0 917.2 -0.1 42
2017-07-27 10:00:00 24.5 6 Sudeste 11 Sudeste 0 917.6 0.4 58
2017-07-27 09:00:00 19.4 6 Este 10 Sudeste 0 917.6 0.8 86
2017-07-27 08:00:00 17.4 7 Sudeste 10 Este 0 917.3 0.6 89
2017-07-27 07:00:00 17.6 6 Sudeste 11 Sudeste 0 917.2 0.5 89
2017-07-27 06:00:00 17.9 7 Sudeste 14 Sudeste 0 916.8 -0.3 89
2017-07-27 05:00:00 17.8 11 Este 15 Sudeste 0 916.7 -0.3 85
2017-07-27 04:00:00 18.4 9 Sudeste 14 Sudeste 0 916.7 -0.3 82
2017-07-27 03:00:00 19.3 10 Sudeste 14 Este 0 917.1 0.1 78
2017-07-27 02:00:00 20.6 3 Sur 10 Sudeste 0 917 0.6 72
2017-07-27 01:00:00 21.6 0 Calma 12 Sudoeste 0 917 1.3 66
2017-07-27 00:00:00 22.9 0 Calma 30 Sudeste 0 917 1.8 58
2017-07-26 23:00:00 24.5 9 Norte 17 Noroeste 0 916.4 1.6 27
2017-07-26 22:00:00 26.6 11 Noroeste 19 Noroeste 0 915.7 1.1 25
2017-07-26 21:00:00 28.6 13 Noroeste 26 Norte 0 915.2 0.4 23
2017-07-26 20:00:00 29.8 13 Noroeste 30 Noroeste 0 914.8 -0.3 22
2017-07-26 19:00:00 30.3 15 Noroeste 32 Noroeste 0 914.6 -0.9 22
2017-07-26 18:00:00 30.8 13 Noroeste 31 Oeste 0 914.8 -1.1 22
2017-07-26 17:00:00 29.8 12 Norte 40 Noroeste 0 915.1 -1 23
2017-07-26 16:00:00 28.6 13 Norte 36 Norte 0 915.5 -1.2 25
2017-07-26 15:00:00 27.8 12 Noroeste 31 Noroeste 0 915.9 -0.8 29
2017-07-26 14:00:00 27.8 10 Noroeste 24 Noroeste 0 916.1 -0.7 29
2017-07-26 13:00:00 25.9 8 Noroeste 22 Norte 0 916.7 -0.3 33
2017-07-26 12:00:00 24 12 Norte 22 Norte 0 916.7 0 39
2017-07-26 11:00:00 22.6 5 Noroeste 15 Noroeste 0 916.8 0.6 59
2017-07-26 10:00:00 20.4 5 Sudoeste 12 Sudoeste 0 917 1 72
2017-07-26 09:00:00 17.8 0 Calma 0 Calma 0 916.7 1 88
2017-07-26 08:00:00 16.5 0 Calma -- -- 0 916.2 0.2 89
2017-07-26 07:00:00 16.3 0 Calma -- -- 0 916 -0.2 88
2017-07-26 06:00:00 17 0 Calma 9 Sur 0 915.7 -0.3 85
2017-07-26 05:00:00 17.7 9 Sur 17 Sudeste 0 916 -0.2 82
2017-07-26 04:00:00 18.1 13 Sudeste 19 Sudeste 0 916.2 -0.3 78
2017-07-26 03:00:00 18.1 12 Sudeste 18 Sudeste 0 916 0.2 79
2017-07-26 02:00:00 16.5 12 Sudeste 23 Sudeste 0 916.2 0.8 79
2017-07-26 01:00:00 17 16 Sudeste 22 Sudeste 0 916.5 2.1 75
2017-07-26 00:00:00 18.9 18 Este 25 Este 0 915.8 1.8 69
2017-07-25 23:00:00 21.6 14 Sudeste 27 Sudeste 0 915.4 1.8 66
2017-07-25 22:00:00 24.7 8 Este 31 Norte 0 914.4 1.1 30
2017-07-25 21:00:00 27.1 15 Noroeste 30 Noroeste 0 914 0.5 21
2017-07-25 20:00:00 28.2 20 Norte 33 Noroeste 0 913.6 -0.2 22
2017-07-25 19:00:00 29.3 16 Noroeste 37 Noroeste 0 913.3 -1.2 25
2017-07-25 18:00:00 29.9 17 Noroeste 36 Noroeste 0 913.5 -1.4 27
2017-07-25 17:00:00 29.9 16 Noroeste 40 Noroeste 0 913.8 -1.6 28
2017-07-25 16:00:00 28.9 19 Noroeste 35 Oeste 0 914.5 -1.4 29
2017-07-25 15:00:00 29.3 9 Noroeste 26 Sudoeste 0 914.9 -1.7 29
2017-07-25 14:00:00 28.9 6 Oeste 26 Sudoeste 0 915.4 -1.4 36
2017-07-25 13:00:00 27.5 10 Sur 22 Sur 0 915.9 -1.4 42
2017-07-25 12:00:00 25.9 6 Sudoeste 22 Sudoeste 0 916.6 -0.6 47
2017-07-25 11:00:00 23.7 11 Sudoeste 23 Sudoeste 0 916.8 -0.4 54
2017-07-25 10:00:00 21.8 9 Sur 16 Sur 0 917.3 0.3 68
2017-07-25 09:00:00 18.5 5 Sur 9 Sudeste 0 917.2 0.2 78
2017-07-25 08:00:00 16 0 Calma -- -- 0 917.2 0.2 79
2017-07-25 07:00:00 16 0 Calma 6 Norte 0 917 -0.4 78
2017-07-25 06:00:00 16.5 0 Calma 14 Sudeste 0 917 -0.8 76
2017-07-25 05:00:00 17.4 11 Este 16 Este 0 917 -0.7 73
2017-07-25 04:00:00 17.6 8 Este 19 Sudeste 0 917.4 -0.4 79
2017-07-25 03:00:00 17.8 14 Este 21 Este 0 917.8 0.2 79
2017-07-25 02:00:00 18.8 17 Este 23 Este 0 917.7 0.7 75
2017-07-25 01:00:00 20.1 15 Este 23 Sudeste 0 917.8 1.1 69
2017-07-25 00:00:00 22.2 13 Este 26 Este 0 917.6 1 56
2017-07-24 23:00:00 25 11 Nordeste 22 Nordeste 0 917 0.5 29
2017-07-24 22:00:00 25.7 10 Norte 24 Noroeste 0 916.7 0.5 28
2017-07-24 21:00:00 28.2 15 Noroeste 32 Noroeste 0 916.6 0.2 26
2017-07-24 20:00:00 29.4 21 Noroeste 37 Noroeste 0 916.5 -0.1 26
2017-07-24 19:00:00 30.2 18 Noroeste 38 Noroeste 0 916.2 -0.8 25
2017-07-24 18:00:00 30.8 15 Noroeste 42 Noroeste 0 916.4 -1.1 25
2017-07-24 17:00:00 30.4 17 Noroeste 38 Noroeste 0 916.6 -1.3 26
2017-07-24 16:00:00 30.2 15 Noroeste 36 Norte 0 917 -1.4 26
2017-07-24 15:00:00 30.2 14 Oeste 36 Norte 0 917.5 -1.1 28
2017-07-24 14:00:00 28.4 12 Noroeste 32 Noroeste 0 917.9 -0.8 31
2017-07-24 13:00:00 27.6 9 Noroeste 22 Noroeste 0 918.4 -0.4 34
2017-07-24 12:00:00 25.4 13 Noroeste 23 Noroeste 0 918.6 -0.2 40
2017-07-24 11:00:00 23.1 13 Noroeste 27 Norte 0 918.7 0.2 43
2017-07-24 10:00:00 21.7 13 Norte 26 Norte 0 918.8 0.6 46
2017-07-24 09:00:00 20.2 7 Noroeste 19 Noroeste 0 918.8 1 58
2017-07-24 08:00:00 18.5 6 Noroeste 15 Noroeste 0 918.5 0.6 66
2017-07-24 07:00:00 17.7 0 Calma 8 Sur 0 918.2 0.2 50
2017-07-24 06:00:00 17.6 0 Calma 8 Sur 0 917.8 -0.6 54
2017-07-24 05:00:00 16.9 0 Calma 4 Sudeste 0 917.9 -0.9 61
2017-07-24 04:00:00 17.5 0 Calma 10 Sudeste 0 918 -1 69
2017-07-24 03:00:00 18.1 7 Sudeste 13 Sudeste 0 918.4 -0.5 66
2017-07-24 02:00:00 18.9 9 Sudeste 17 Sudeste 0 918.8 0.2 63
2017-07-24 01:00:00 20.2 12 Sudeste 22 Sudeste 0 919 1.2 58
2017-07-24 00:00:00 21.7 12 Sudeste 21 Sudeste 0 918.9 1.8 53
2017-07-23 23:00:00 23.5 15 Sudeste 24 Sudeste 0 918.6 2 48
2017-07-23 22:00:00 26 2 Sur 13 Norte 0 917.8 1.3 23
2017-07-23 21:00:00 29.5 11 Norte 28 Norte 0 917.1 0.4 20
2017-07-23 20:00:00 30.9 18 Norte 36 Oeste 0 916.6 -0.3 19
2017-07-23 19:00:00 32.5 19 Noroeste 42 Noroeste 0 916.5 -1.1 19
2017-07-23 18:00:00 32.7 20 Noroeste 41 Oeste 0 916.7 -1.6 19
2017-07-23 17:00:00 32.7 15 Sudoeste 26 Sur 0 916.9 -2.1 25
2017-07-23 16:00:00 32.5 12 Sudoeste 24 Sudoeste 0 917.6 -1.5 27
2017-07-23 15:00:00 31.4 13 Sudoeste 26 Sudoeste 0 918.3 -0.8 28
2017-07-23 14:00:00 30.4 7 Sudoeste 34 Sur 0 919 0 32
2017-07-23 13:00:00 29.2 13 Sur 26 Sur 0 919.1 0.7 36
2017-07-23 12:00:00 27 12 Sudeste 20 Sudeste 0 919.1 0.4 39
2017-07-23 11:00:00 25.8 2 Sudoeste 17 Sudeste 0 919 0.8 36
2017-07-23 10:00:00 24.4 11 Sudeste 15 Sudeste 0 918.4 0.8 50
2017-07-23 09:00:00 21.2 9 Este 17 Sudeste 0 918.7 1.5 64
2017-07-23 08:00:00 18.8 0 Calma 13 Este 0 918.2 1.4 70
2017-07-23 07:00:00 18 5 Este 12 Sudeste 0 917.6 0.2 71
2017-07-23 06:00:00 19.2 0 Calma 8 Norte 0 917.2 -0.8 69
2017-07-23 05:00:00 18.8 7 Este 18 Este 0 916.8 -1.4 69
2017-07-23 04:00:00 18.3 12 Este 18 Sur 0 917.4 -0.9 69
2017-07-23 03:00:00 18.5 10 Sudeste 17 Sur 0 918 0 66
2017-07-23 02:00:00 19.9 10 Sudeste 19 Sudeste 0 918.2 1 65
2017-07-23 01:00:00 20.6 2 Sur 18 Sur 0 918.3 2.1 62
2017-07-23 00:00:00 22 14 Sur 26 Sur 0 918 2.7 56
2017-07-22 23:00:00 23.9 14 Sur 22 Sudeste 0 917.2 2.5 46
2017-07-22 22:00:00 26 6 Sudeste 25 Sudeste 0 916.2 1.6 37
2017-07-22 21:00:00 29.4 12 Sudoeste 21 Sur 0 915.3 0.8 25
2017-07-22 20:00:00 31.5 10 Sudoeste 17 Sudoeste 0 914.7 0 22
2017-07-22 19:00:00 31.2 16 Sudoeste 24 Sudoeste 0 914.6 -0.4 22
2017-07-22 18:00:00 32.9 2 Noroeste 19 Oeste 0 914.5 -0.7 22
2017-07-22 17:00:00 32.6 0 Calma 23 Sudoeste 0 914.7 -1 22
2017-07-22 16:00:00 31.4 6 Noroeste 26 Sudoeste 0 915 -0.8 23
2017-07-22 15:00:00 31.1 4 Oeste 17 Sudoeste 0 915.2 -0.7 22
2017-07-22 14:00:00 29.7 0 Calma 20 Sudoeste 0 915.7 -0.3 24
2017-07-22 13:00:00 28.1 3 Oeste 15 Oeste 0 915.8 0 25
2017-07-22 12:00:00 26.4 4 Oeste 16 Norte 0 915.9 0.9 27
2017-07-22 11:00:00 23.9 6 Noroeste 19 Norte 0 916 1.1 29
2017-07-22 10:00:00 21.9 10 Norte 20 Norte 0 915.8 1.3 32
2017-07-22 09:00:00 19.9 9 Norte 18 Norte 0 915 0.5 50
2017-07-22 08:00:00 17.4 0 Calma -- -- 0 914.9 0.4 70
2017-07-22 07:00:00 16.7 0 Calma -- -- 0 914.5 0.1 82
2017-07-22 06:00:00 17.2 0 Calma 10 Este 0 914.5 -0.2 84
2017-07-22 05:00:00 17.3 8 Sudeste 10 Este 0 914.5 -0.2 83
2017-07-22 04:00:00 17.9 6 Sudeste 8 Este 0 914.4 -0.5 79
2017-07-22 03:00:00 18.7 0 Calma 14 Sudeste 0 914.7 0.3 75
2017-07-22 02:00:00 19.4 3 Sur 15 Sur 0 914.7 0.5 73
2017-07-22 01:00:00 20.2 5 Sur 15 Sur 0 914.9 1.7 70
2017-07-22 00:00:00 21.1 9 Sudeste 20 Sur 0 914.4 2.2 64
2017-07-21 23:00:00 22.3 14 Sur 22 Sudeste 0 914.2 2.6 57
2017-07-21 22:00:00 24.5 13 Sudoeste 25 Noroeste 0 913.2 1.8 44
2017-07-21 21:00:00 27.9 12 Noroeste 29 Noroeste 0 912.2 0.5 19
2017-07-21 20:00:00 29.8 12 Oeste 28 Oeste 0 911.6 -0.2 19
2017-07-21 19:00:00 30.8 10 Noroeste 30 Noroeste 0 911.4 -0.5 19
2017-07-21 18:00:00 30.5 15 Noroeste 29 Oeste 0 911.7 -0.7 20
2017-07-21 17:00:00 30.7 13 Oeste 28 Noroeste 0 911.8 -1.1 22
2017-07-21 16:00:00 30 13 Oeste 25 Oeste 0 911.9 -1.2 26
2017-07-21 15:00:00 29.2 9 Oeste 33 Sudoeste 0 912.4 -0.9 29
2017-07-21 14:00:00 28.6 7 Oeste 22 Sudoeste 0 912.9 -0.6 32
2017-07-21 13:00:00 26.9 9 Sudoeste 22 Sudoeste 0 913.1 -0.5 38
2017-07-21 12:00:00 24.8 8 Sudoeste 18 Sudoeste 0 913.3 -0.1 43
2017-07-21 11:00:00 23.1 10 Sudoeste 22 Sur 0 913.5 0.6 52
2017-07-21 10:00:00 20.9 9 Sur 19 Sur 0 913.6 0.8 66
2017-07-21 09:00:00 19.1 10 Sur 17 Sudeste 0 913.4 0.6 85
2017-07-21 08:00:00 18 8 Sudeste 10 Sur 0 912.9 0 88
2017-07-21 07:00:00 17.8 4 Sur 12 Sudeste 0 912.8 -0.3 87
2017-07-21 06:00:00 18.1 10 Sudeste 23 Sur 0 912.8 -0.4 87
2017-07-21 05:00:00 18.3 12 Sur 23 Sudeste 0 912.9 -0.3 88
2017-07-21 04:00:00 18.5 14 Sudeste 24 Sudeste 0 913.1 -0.4 88
2017-07-21 03:00:00 18.8 15 Sudeste 24 Sudeste 0 913.2 0 87
2017-07-21 02:00:00 19.5 15 Sudeste 24 Sudeste 0 913.2 0 84
2017-07-21 01:00:00 20 17 Sudeste 25 Sudeste 0 913.5 0.8 80
2017-07-21 00:00:00 20.7 18 Sur 27 Sur 0 913.2 0.9 72
2017-07-20 23:00:00 21.4 20 Sur 29 Sudeste 0 913.2 1 68
2017-07-20 22:00:00 22.1 19 Sudeste 38 Sudeste 0 912.7 1.4 68
2017-07-20 21:00:00 23.4 28 Sudeste 44 Sudeste 0 912.3 0.7 62
2017-07-20 20:00:00 25.6 28 Sudeste 60 Sudeste 0 912.2 0.2 50
2017-07-20 19:00:00 32 3 Este 18 Este 0 911.3 -1.2 25
2017-07-20 18:00:00 32.5 0 Calma 21 Sudoeste 0 911.6 -1.7 25
2017-07-20 17:00:00 32.1 9 Sudoeste 20 Sudoeste 0 912 -1.9 26
2017-07-20 16:00:00 31.3 4 Sudoeste 22 Sudoeste 0 912.5 -1.8 28
2017-07-20 15:00:00 30.2 8 Oeste 26 Sur 0 913.3 -1.5 30
2017-07-20 14:00:00 29.6 13 Sudoeste -- -- -- 913.9 -1 32
2017-07-20 13:00:00 27.5 5 Noroeste 19 Noroeste 0 914.3 -1 35
2017-07-20 12:00:00 25.1 9 Noroeste 25 Noroeste 0 914.8 -0.3 40
2017-07-20 11:00:00 23.4 9 Noroeste 21 Noroeste 0 914.9 0.4 44
2017-07-20 10:00:00 21.4 8 Noroeste 20 Oeste 0 915.3 1 48
2017-07-20 09:00:00 19.5 12 Noroeste 25 Noroeste 0 915.1 1 48
2017-07-20 08:00:00 18.6 13 Noroeste 26 Noroeste 0 914.5 0.7 44
2017-07-20 07:00:00 17.5 11 Noroeste 22 Norte 0 914.3 0.5 44
2017-07-20 06:00:00 18.3 11 Noroeste 23 Noroeste 0 914.1 -0.1 41
2017-07-20 05:00:00 19.2 13 Noroeste 27 Noroeste 0 913.8 -0.6 37
2017-07-20 04:00:00 20.2 16 Noroeste 30 Noroeste 0 913.8 -0.8 36
2017-07-20 03:00:00 21.3 12 Noroeste 23 Noroeste 0 914.2 -0.4 34
2017-07-20 02:00:00 22.3 13 Noroeste 20 Noroeste 0 914.4 0 33
2017-07-20 01:00:00 22.7 13 Noroeste 17 Oeste 0 914.6 1 33
2017-07-20 00:00:00 23.9 12 Noroeste 19 Noroeste 0 914.6 1.5 30
2017-07-19 23:00:00 25.2 13 Noroeste 23 Oeste 0 914.4 1.5 27
2017-07-19 22:00:00 26.8 13 Oeste 30 Oeste 0 913.6 1 24
2017-07-19 21:00:00 29.5 18 Oeste 32 Noroeste 0 913.1 0.2 22
2017-07-19 20:00:00 29.8 18 Noroeste 31 Oeste 0 912.9 -0.5 22
2017-07-19 19:00:00 33.1 12 Oeste 26 Oeste 0 912.6 -1.2 22
2017-07-19 18:00:00 32.5 6 Noroeste 27 Sudoeste 0 912.9 -1.6 23
2017-07-19 17:00:00 32.9 5 Sudoeste 24 Sudoeste 0 913.4 -1.5 23
2017-07-19 16:00:00 33.8 2 Sudoeste 19 Oeste 0 913.8 -1.6 23
2017-07-19 15:00:00 32.4 2 Sudoeste 15 Noroeste 0 914.5 -1.3 25
2017-07-19 14:00:00 31.3 0 Calma 21 Sudoeste 0 914.9 -0.9 29
2017-07-19 13:00:00 29.8 5 Oeste 23 Sudoeste 0 915.4 -0.6 32
2017-07-19 12:00:00 28.5 6 Oeste 18 Sudoeste 0 915.8 0 35
2017-07-19 11:00:00 26.5 5 Sudoeste 19 Sudoeste 0 915.8 -0.1 36
2017-07-19 10:00:00 23.7 0 Calma 10 Sudeste 0 916 1.2 38
2017-07-19 09:00:00 20.1 3 Sudeste 15 Noroeste 0 915.8 0.7 56
2017-07-19 08:00:00 18 5 Noroeste 19 Este 0 915.9 -0.2 72
2017-07-19 07:00:00 17.1 18 Sudeste 25 Sudeste 0 914.8 -1.8 75
2017-07-19 06:00:00 17.7 13 Este 20 Este 0 915.1 -2.1 70
2017-07-19 05:00:00 19 12 Sudeste 28 Sudeste 0 916.1 -0.5 65
2017-07-19 04:00:00 19.5 13 Sur 26 Sudeste 0 916.6 0.4 59
2017-07-19 03:00:00 19.8 3 Sudoeste 28 Sudeste 0 917.2 0.7 53
2017-07-19 02:00:00 19.8 17 Sudeste 27 Sudeste 0 916.6 0.3 56
2017-07-19 01:00:00 20.2 21 Sudeste 27 Sudeste 0 916.2 0.5 45
2017-07-19 00:00:00 20.5 17 Sudeste 25 Este 0 916.5 1.1 40